17:25
Airports
Links
Donate
Help keep this website running!
PayPal
Bitcoin
METAR
DNKN 191700Z 05004KT 5000 HZ NSC 32/04 Q1011 NOSIG
Current Weather Conditions at DNKN
MVFR 17:00:00 19-02-18
Altimeter:29.85 hg
Temp:32.0°c 90°f
Dew point:4.0°c 39°f
Wind:4 knots, 4.6 mph, 2 m/s, from 50°
Visibility:3.11 statute miles
(CLR) Clear
No significant weather changes expected within 2 hours.
Past METAR reports
MVFR 16:00:00 19-02-18
Altimeter:29.85 hg
Temp:33.0°c 91°f
Dew point:3.0°c 37°f
Wind:4 knots, 4.6 mph, 2 m/s, from 60°
Visibility:3.11 statute miles
(CLR) Clear
No significant weather changes expected within 2 hours.
DNKN 191600Z 06004KT 5000 HZ NSC 33/03 Q1011 NOSIG
MVFR 15:00:00 19-02-18
Altimeter:29.85 hg
Temp:34.0°c 93°f
Dew point:4.0°c 39°f
Wind:6 knots, 6.9 mph, 3 m/s, from 60°
Visibility:3.11 statute miles
(CLR) Clear
No significant weather changes expected within 2 hours.
DNKN 191500Z 06006KT 5000 HZ NSC 34/04 Q1011 NOSIG
MVFR 14:00:00 19-02-18
Altimeter:29.88 hg
Temp:33.0°c 91°f
Dew point:3.0°c 37°f
Wind:7 knots, 8.1 mph, 4 m/s, from 80°
Visibility:3.11 statute miles
(CLR) Clear
No significant weather changes expected within 2 hours.
DNKN 191400Z 08007KT 5000 HZ NSC 33/03 Q1012 NOSIG
MVFR 13:00:00 19-02-18
Altimeter:29.88 hg
Temp:32.0°c 90°f
Dew point:1.0°c 34°f
Wind:9 knots, 10.4 mph, 5 m/s, from 70°
Visibility:3.11 statute miles
(CLR) Clear
No significant weather changes expected within 2 hours.
DNKN 191300Z 07009KT 5000 HZ NSC 32/01 Q1012 NOSIG
TAF
TAF DNKN 190930Z 1912/2018 08008KT 3000 HZ NSC BECMG 1912/1914 5000 BECMG 1915/1917 8000 NSW
Forecast at DNKN
BECMG 12:00 19-02-18 to 15:00 19-02-18
HZ
Wind:8 Knots from 80°
Visibility:3.11 statute miles
NSC
12:00 19-02-18 to 18:00 20-02-18
HZ
Wind:8 Knots from 80°
Visibility:1.86 statute miles
NSC
BECMG 15:00 19-02-18 to 18:00 20-02-18
NSW
Wind:8 Knots from 80°
Visibility:4.97 statute miles
NSC